createdAt,value
2023-02-01T00:01:16.438Z,5.80
2023-02-01T00:03:43.700Z,5.70
2023-02-01T00:06:10.691Z,5.80
2023-02-01T00:08:37.513Z,5.80
2023-02-01T00:11:07.128Z,5.70
2023-02-01T00:13:36.197Z,5.70
2023-02-01T00:16:15.500Z,5.80
2023-02-01T00:18:42.297Z,5.70
2023-02-01T00:21:10.821Z,5.70
2023-02-01T00:23:38.494Z,5.60
2023-02-01T00:26:06.872Z,5.60
2023-02-01T00:28:34.134Z,5.70
2023-02-01T00:31:02.706Z,5.60
2023-02-01T00:33:31.355Z,5.50
2023-02-01T00:36:03.273Z,5.50
2023-02-01T00:38:32.513Z,5.50
2023-02-01T00:41:05.994Z,5.60
2023-02-01T00:43:34.234Z,5.50
2023-02-01T00:46:01.742Z,5.70
2023-02-01T00:48:28.691Z,5.60
2023-02-01T00:50:55.440Z,5.60
2023-02-01T00:53:22.213Z,5.70
2023-02-01T00:55:49.278Z,5.70
2023-02-01T00:58:16.034Z,5.50
2023-02-01T01:00:42.898Z,5.60
2023-02-01T01:03:20.935Z,5.60
2023-02-01T01:05:49.304Z,5.70
2023-02-01T01:08:16.941Z,5.50
2023-02-01T01:10:44.406Z,5.60
2023-02-01T01:13:12.177Z,5.40
2023-02-01T01:15:40.233Z,5.40
2023-02-01T01:18:07.598Z,5.20
2023-02-01T01:20:37.678Z,5.10
2023-02-01T01:23:07.435Z,5.20
2023-02-01T01:25:38.131Z,5.10
2023-02-01T01:28:06.882Z,5.20
2023-02-01T01:30:35.941Z,5.10
2023-02-01T01:33:03.207Z,5.30
2023-02-01T01:35:35.996Z,5.30
2023-02-01T01:38:03.332Z,5.20
2023-02-01T01:40:31.008Z,5.10
2023-02-01T01:42:58.845Z,5.10
2023-02-01T01:45:29.942Z,5.20
2023-02-01T01:48:07.626Z,5.20
2023-02-01T01:50:42.738Z,5.30
2023-02-01T01:53:13.640Z,5.50
2023-02-01T01:55:44.402Z,5.40
2023-02-01T01:58:19.142Z,5.50
2023-02-01T02:00:47.600Z,5.70
2023-02-01T02:03:38.310Z,5.50
2023-02-01T02:06:11.552Z,5.50
2023-02-01T02:08:39.373Z,5.60
2023-02-01T02:11:06.117Z,5.40
2023-02-01T02:13:38.259Z,5.40
2023-02-01T02:16:24.485Z,5.20
2023-02-01T02:18:57.326Z,5.00
2023-02-01T02:22:01.749Z,5.00
2023-02-01T02:24:43.659Z,4.80
2023-02-01T02:27:24.536Z,4.90
2023-02-01T02:30:12.207Z,4.60
2023-02-01T02:32:57.197Z,4.70
2023-02-01T02:35:48.359Z,4.90
2023-02-01T02:38:34.165Z,5.00
2023-02-01T02:42:01.636Z,5.00
2023-02-01T02:44:55.243Z,4.90
2023-02-01T02:47:40.432Z,5.00
2023-02-01T02:50:34.749Z,4.90
2023-02-01T02:53:47.331Z,4.70
2023-02-01T02:56:34.939Z,4.70
2023-02-01T02:59:22.758Z,4.90
2023-02-01T03:02:09.362Z,4.90
2023-02-01T03:04:36.097Z,5.00
2023-02-01T03:07:53.514Z,5.00
2023-02-01T03:10:57.306Z,5.10
2023-02-01T03:13:48.760Z,5.00
2023-02-01T03:16:24.125Z,5.10
2023-02-01T03:19:03.222Z,5.00
2023-02-01T03:21:39.105Z,5.10
2023-02-01T03:24:34.159Z,5.00
2023-02-01T03:27:13.714Z,5.10
2023-02-01T03:29:57.347Z,5.20
2023-02-01T03:32:24.488Z,5.20
2023-02-01T03:34:56.898Z,5.10
2023-02-01T03:37:29.124Z,5.10
2023-02-01T03:40:02.201Z,5.00
2023-02-01T03:42:36.223Z,5.40
2023-02-01T03:45:03.069Z,4.90
2023-02-01T03:47:34.513Z,5.00
2023-02-01T03:50:05.800Z,5.00
2023-02-01T03:52:45.615Z,5.20
2023-02-01T03:55:14.806Z,5.20
2023-02-01T03:57:46.328Z,5.10
2023-02-01T04:00:24.606Z,5.10
2023-02-01T04:02:53.189Z,5.10
2023-02-01T04:05:21.494Z,5.00
2023-02-01T04:07:49.724Z,4.90
2023-02-01T04:10:19.539Z,4.90
2023-02-01T04:12:46.582Z,5.10
2023-02-01T04:15:13.348Z,5.00
2023-02-01T04:17:40.144Z,5.10
2023-02-01T04:20:07.303Z,5.10
2023-02-01T04:22:35.216Z,5.10
2023-02-01T04:25:02.144Z,5.20
2023-02-01T04:27:28.900Z,5.00
2023-02-01T04:29:58.417Z,5.20
2023-02-01T04:32:25.382Z,5.00
2023-02-01T04:34:53.340Z,5.00
2023-02-01T04:37:20.167Z,5.10
2023-02-01T04:39:46.925Z,5.30
2023-02-01T04:42:14.595Z,5.10
2023-02-01T04:44:42.839Z,5.20
2023-02-01T04:47:10.524Z,5.50
2023-02-01T04:49:37.360Z,5.60
2023-02-01T04:52:04.647Z,5.60
2023-02-01T04:54:31.402Z,5.50
2023-02-01T04:56:58.233Z,5.50
2023-02-01T04:59:24.995Z,5.60
2023-02-01T05:01:51.791Z,5.50
2023-02-01T05:04:21.798Z,5.60
2023-02-01T05:06:48.964Z,5.60
2023-02-01T05:09:15.758Z,5.90
2023-02-01T05:12:01.604Z,5.70
2023-02-01T05:14:28.356Z,5.80
2023-02-01T05:16:55.104Z,5.90
2023-02-01T05:19:22.072Z,6.00
2023-02-01T05:21:48.806Z,6.00
2023-02-01T05:24:20.544Z,5.80
2023-02-01T05:26:49.078Z,5.60
2023-02-01T05:29:17.121Z,5.70
2023-02-01T05:31:46.167Z,5.70
2023-02-01T05:34:13.315Z,5.60
2023-02-01T05:36:40.459Z,5.80
2023-02-01T05:39:07.354Z,5.70
2023-02-01T05:41:34.187Z,5.70
2023-02-01T05:44:00.906Z,5.70
2023-02-01T05:46:27.799Z,5.70
2023-02-01T05:48:54.618Z,5.80
2023-02-01T05:51:21.396Z,5.60
2023-02-01T05:53:48.187Z,5.90
2023-02-01T05:56:14.951Z,5.50
2023-02-01T05:58:41.685Z,5.60
2023-02-01T06:01:08.476Z,5.60
2023-02-01T06:03:35.316Z,5.60
2023-02-01T06:06:02.509Z,5.60
2023-02-01T06:08:29.619Z,5.40
2023-02-01T06:11:05.008Z,5.60
2023-02-01T06:13:34.566Z,5.50
2023-02-01T06:16:03.387Z,5.40
2023-02-01T06:18:31.592Z,5.40
2023-02-01T06:21:01.641Z,5.40
2023-02-01T06:23:29.852Z,5.50
2023-02-01T06:26:05.837Z,5.50
2023-02-01T06:28:33.801Z,5.40
2023-02-01T06:31:07.911Z,5.50
2023-02-01T06:33:35.580Z,5.60
2023-02-01T06:36:06.186Z,5.60
2023-02-01T06:38:35.662Z,5.50
2023-02-01T06:41:03.337Z,5.50
2023-02-01T06:43:31.046Z,5.50
2023-02-01T06:46:06.857Z,5.70
2023-02-01T06:48:34.455Z,5.70
2023-02-01T06:51:01.709Z,5.60
2023-02-01T06:53:28.553Z,5.50
2023-02-01T06:55:58.064Z,5.80
2023-02-01T06:58:25.396Z,5.70
2023-02-01T07:00:54.970Z,5.50
2023-02-01T07:03:22.011Z,5.50
2023-02-01T07:05:48.809Z,5.60
2023-02-01T07:08:15.576Z,5.50
2023-02-01T07:10:42.502Z,5.50
2023-02-01T07:13:09.340Z,5.70
2023-02-01T07:15:36.063Z,5.90
2023-02-01T07:18:02.827Z,5.70
2023-02-01T07:20:29.890Z,5.70
2023-02-01T07:22:57.785Z,5.70
2023-02-01T07:25:25.184Z,5.80
2023-02-01T07:27:52.101Z,5.60
2023-02-01T07:30:19.205Z,5.40
2023-02-01T07:32:46.027Z,5.50
2023-02-01T07:35:12.796Z,5.50
2023-02-01T07:37:39.649Z,5.40
2023-02-01T07:40:07.215Z,5.50
2023-02-01T07:42:35.252Z,5.60
2023-02-01T07:45:19.959Z,5.40
2023-02-01T07:47:48.265Z,5.40
2023-02-01T07:50:15.286Z,5.40
2023-02-01T07:52:42.131Z,5.40
2023-02-01T07:55:09.471Z,5.60
2023-02-01T07:57:36.405Z,5.70
2023-02-01T08:00:23.051Z,5.60
2023-02-01T08:02:51.176Z,5.60
2023-02-01T08:05:17.957Z,5.80
2023-02-01T08:07:44.709Z,5.80
2023-02-01T08:10:12.520Z,5.70
2023-02-01T08:12:39.655Z,5.80
2023-02-01T08:15:07.005Z,5.80
2023-02-01T08:17:33.932Z,5.90
2023-02-01T08:20:01.635Z,6.10
2023-02-01T08:22:33.271Z,6.10
2023-02-01T08:25:02.352Z,6.20
2023-02-01T08:27:29.557Z,6.20
2023-02-01T08:29:56.885Z,6.30
2023-02-01T08:32:23.670Z,6.10
2023-02-01T08:34:50.427Z,6.20
2023-02-01T08:37:17.748Z,6.20
2023-02-01T08:39:47.612Z,6.30
2023-02-01T08:42:33.085Z,6.40
2023-02-01T08:44:59.851Z,6.50
2023-02-01T08:47:26.676Z,6.70
2023-02-01T08:49:54.358Z,6.70
2023-02-01T08:52:21.339Z,6.70
2023-02-01T08:54:48.104Z,6.90
2023-02-01T08:57:14.931Z,6.80
2023-02-01T08:59:41.825Z,6.80
2023-02-01T09:02:16.223Z,6.90
2023-02-01T09:04:43.286Z,7.00
2023-02-01T09:07:11.011Z,7.00
2023-02-01T09:09:38.319Z,6.90
2023-02-01T09:12:05.683Z,6.90
2023-02-01T09:14:32.543Z,7.00
2023-02-01T09:16:59.729Z,6.90
2023-02-01T09:19:27.515Z,7.10
2023-02-01T09:21:55.799Z,7.20
2023-02-01T09:24:22.943Z,7.30
2023-02-01T09:26:50.258Z,7.30
2023-02-01T09:29:17.298Z,7.30
2023-02-01T09:31:57.382Z,7.30
2023-02-01T09:34:29.654Z,7.50
2023-02-01T09:36:56.468Z,7.70
2023-02-01T09:39:23.379Z,7.50
2023-02-01T09:42:11.722Z,7.50
2023-02-01T09:44:44.225Z,7.50
2023-02-01T09:47:15.557Z,7.60
2023-02-01T09:50:18.080Z,7.70
2023-02-01T09:53:05.864Z,7.80
2023-02-01T09:55:43.593Z,7.90
2023-02-01T09:58:34.397Z,7.90
2023-02-01T10:01:03.958Z,8.10
2023-02-01T10:03:36.757Z,8.00
2023-02-01T10:06:27.911Z,8.30
2023-02-01T10:09:17.274Z,8.30
2023-02-01T10:11:57.867Z,8.40
2023-02-01T10:14:46.399Z,8.40
2023-02-01T10:17:46.840Z,8.40
2023-02-01T10:20:39.250Z,8.50
2023-02-01T10:23:32.573Z,8.40
2023-02-01T10:26:23.285Z,8.60
2023-02-01T10:29:17.373Z,8.80
2023-02-01T10:31:45.002Z,8.70
2023-02-01T10:34:28.871Z,8.80
2023-02-01T10:37:15.374Z,8.90
2023-02-01T10:39:42.334Z,9.10
2023-02-01T10:42:11.495Z,9.20
2023-02-01T10:44:44.444Z,9.40
2023-02-01T10:47:12.313Z,9.40
2023-02-01T10:49:48.602Z,9.30
2023-02-01T10:52:25.818Z,9.30
2023-02-01T10:54:53.981Z,9.40
2023-02-01T10:57:26.686Z,9.60
2023-02-01T10:59:54.195Z,9.50
2023-02-01T11:02:33.711Z,9.70
2023-02-01T11:05:13.233Z,9.90
2023-02-01T11:07:47.108Z,9.70
2023-02-01T11:10:37.582Z,9.70
2023-02-01T11:13:05.750Z,9.70
2023-02-01T11:15:32.664Z,9.80
2023-02-01T11:18:16.660Z,9.90
2023-02-01T11:20:45.743Z,10.00
2023-02-01T11:23:17.642Z,10.10
2023-02-01T11:25:55.114Z,10.20
2023-02-01T11:28:25.989Z,10.20
2023-02-01T11:30:56.546Z,10.30
2023-02-01T11:33:30.932Z,10.40
2023-02-01T11:36:01.131Z,10.60
2023-02-01T11:38:28.108Z,10.60
2023-02-01T11:40:55.633Z,10.30
2023-02-01T11:43:28.886Z,10.10
2023-02-01T11:46:03.693Z,9.90
2023-02-01T11:48:33.211Z,9.80
2023-02-01T11:51:12.646Z,9.90
2023-02-01T11:53:56.647Z,10.30
2023-02-01T11:56:38.770Z,10.00
2023-02-01T11:59:26.266Z,10.20
2023-02-01T12:02:12.594Z,10.20
2023-02-01T12:05:11.644Z,10.20
2023-02-01T12:08:06.566Z,10.30
2023-02-01T12:10:47.250Z,10.40
2023-02-01T12:13:38.404Z,10.40
2023-02-01T12:16:08.288Z,10.30
2023-02-01T12:18:58.648Z,10.50
2023-02-01T12:21:43.043Z,10.20
2023-02-01T12:24:44.697Z,10.20
2023-02-01T12:27:38.414Z,10.20
2023-02-01T12:30:34.991Z,10.20
2023-02-01T12:33:31.611Z,10.20
2023-02-01T12:36:13.631Z,10.20
2023-02-01T12:38:54.138Z,10.30
2023-02-01T12:41:56.455Z,10.20
2023-02-01T12:44:36.525Z,10.20
2023-02-01T12:47:15.563Z,10.30
2023-02-01T12:50:06.681Z,10.40
2023-02-01T12:52:40.708Z,10.70
2023-02-01T12:55:45.763Z,10.40
2023-02-01T12:58:21.707Z,10.40
2023-02-01T13:01:03.531Z,10.60
2023-02-01T13:03:37.374Z,10.80
2023-02-01T13:06:18.484Z,10.80
2023-02-01T13:08:54.391Z,10.60
2023-02-01T13:11:30.195Z,10.60
2023-02-01T13:14:36.813Z,10.70
2023-02-01T13:17:26.083Z,10.80
2023-02-01T13:20:07.715Z,10.60
2023-02-01T13:22:39.929Z,10.60
2023-02-01T13:25:17.124Z,10.40
2023-02-01T13:27:44.461Z,10.20
2023-02-01T13:30:11.724Z,10.40
2023-02-01T13:33:54.062Z,10.40
2023-02-01T13:36:10.352Z,10.50
2023-02-01T13:38:51.917Z,10.40
2023-02-01T13:41:52.249Z,10.40
2023-02-01T13:44:28.969Z,10.30
2023-02-01T13:46:59.232Z,10.20
2023-02-01T13:49:32.743Z,10.20
2023-02-01T13:52:00.301Z,10.30
2023-02-01T13:54:35.695Z,10.30
2023-02-01T13:57:05.451Z,10.40
2023-02-01T13:59:41.544Z,10.40
2023-02-01T14:02:39.369Z,10.40
2023-02-01T14:05:13.177Z,10.20
2023-02-01T14:08:05.462Z,10.30
2023-02-01T14:10:59.211Z,10.40
2023-02-01T14:13:30.127Z,10.50
2023-02-01T14:16:17.702Z,10.60
2023-02-01T14:18:47.275Z,10.40
2023-02-01T14:21:33.054Z,10.70
2023-02-01T14:24:05.736Z,10.70
2023-02-01T14:26:35.266Z,10.60
2023-02-01T14:29:18.625Z,11.00
2023-02-01T14:32:07.489Z,10.70
2023-02-01T14:34:44.427Z,10.80
2023-02-01T14:37:25.527Z,10.70
2023-02-01T14:40:24.907Z,11.00
2023-02-01T14:42:53.681Z,11.20
2023-02-01T14:45:22.801Z,11.40
2023-02-01T14:48:08.206Z,11.60
2023-02-01T14:50:44.760Z,11.40
2023-02-01T14:53:11.735Z,11.70
2023-02-01T14:55:50.825Z,11.60
2023-02-01T14:58:20.720Z,11.50
2023-02-01T15:00:54.192Z,11.80
2023-02-01T15:03:42.091Z,11.90
2023-02-01T15:06:36.544Z,11.40
2023-02-01T15:09:09.277Z,11.40
2023-02-01T15:11:54.784Z,11.90
2023-02-01T15:14:22.034Z,12.00
2023-02-01T15:16:54.636Z,11.90
2023-02-01T15:19:23.497Z,11.70
2023-02-01T15:21:53.202Z,11.40
2023-02-01T15:24:28.910Z,11.40
2023-02-01T15:26:56.913Z,11.30
2023-02-01T15:29:33.263Z,11.10
2023-02-01T15:32:01.203Z,10.90
2023-02-01T15:34:48.043Z,11.30
2023-02-01T15:37:17.744Z,11.10
2023-02-01T15:40:12.825Z,10.80
2023-02-01T15:43:00.609Z,10.60
2023-02-01T15:45:32.939Z,10.90
2023-02-01T15:48:00.645Z,10.90
2023-02-01T15:50:30.960Z,10.90
2023-02-01T15:52:57.904Z,10.70
2023-02-01T15:55:43.599Z,10.60
2023-02-01T15:58:20.286Z,10.70
2023-02-01T16:00:59.781Z,10.60
2023-02-01T16:03:45.310Z,10.70
2023-02-01T16:06:22.660Z,10.60
2023-02-01T16:08:56.948Z,10.50
2023-02-01T16:11:31.622Z,10.40
2023-02-01T16:14:02.521Z,10.40
2023-02-01T16:16:30.069Z,10.40
2023-02-01T16:18:57.150Z,10.40
2023-02-01T16:21:24.724Z,10.40
2023-02-01T16:23:52.786Z,10.20
2023-02-01T16:26:20.546Z,10.10
2023-02-01T16:28:48.219Z,10.20
2023-02-01T16:31:20.575Z,10.20
2023-02-01T16:33:51.742Z,10.00
2023-02-01T16:36:19.449Z,9.90
2023-02-01T16:38:48.951Z,10.00
2023-02-01T16:41:18.770Z,10.00
2023-02-01T16:43:46.173Z,10.00
2023-02-01T16:46:20.842Z,9.90
2023-02-01T16:48:52.448Z,10.10
2023-02-01T16:51:19.328Z,10.10
2023-02-01T16:53:54.304Z,10.00
2023-02-01T16:56:24.469Z,10.10
2023-02-01T16:58:52.025Z,10.10
2023-02-01T17:01:20.264Z,10.10
2023-02-01T17:03:47.841Z,10.00
2023-02-01T17:06:20.710Z,10.10
2023-02-01T17:09:03.244Z,10.30
2023-02-01T17:11:33.368Z,9.00
2023-02-01T17:14:31.710Z,10.40
2023-02-01T17:17:01.703Z,10.30
2023-02-01T17:19:28.947Z,10.20
2023-02-01T17:21:59.582Z,10.20
2023-02-01T17:24:46.466Z,10.30
2023-02-01T17:27:15.687Z,10.10
2023-02-01T17:29:43.729Z,10.10
2023-02-01T17:32:18.356Z,10.20
2023-02-01T17:34:46.461Z,10.20
2023-02-01T17:37:26.429Z,10.10
2023-02-01T17:39:56.017Z,10.20
2023-02-01T17:42:27.957Z,10.20
2023-02-01T17:45:01.055Z,10.10
2023-02-01T17:47:27.996Z,9.20
2023-02-01T17:49:57.505Z,10.10
2023-02-01T17:52:26.374Z,10.20
2023-02-01T17:54:54.210Z,10.00
2023-02-01T17:57:21.492Z,9.90
2023-02-01T17:59:48.754Z,9.70
2023-02-01T18:02:20.148Z,9.70
2023-02-01T18:04:46.980Z,9.70
2023-02-01T18:07:13.751Z,9.80
2023-02-01T18:09:41.367Z,9.80
2023-02-01T18:12:22.782Z,9.90
2023-02-01T18:14:49.668Z,9.70
2023-02-01T18:17:16.384Z,9.50
2023-02-01T18:19:43.178Z,9.50
2023-02-01T18:22:19.013Z,9.30
2023-02-01T18:24:46.087Z,9.50
2023-02-01T18:27:13.486Z,9.30
2023-02-01T18:29:40.265Z,9.10
2023-02-01T18:32:07.033Z,9.20
2023-02-01T18:34:33.741Z,9.30
2023-02-01T18:37:01.883Z,9.30
2023-02-01T18:39:28.586Z,9.20
2023-02-01T18:41:55.378Z,9.20
2023-02-01T18:44:24.127Z,9.30
2023-02-01T18:46:50.910Z,9.20
2023-02-01T18:49:19.727Z,9.30
2023-02-01T18:51:47.053Z,9.20
2023-02-01T18:54:13.885Z,9.20
2023-02-01T18:56:40.735Z,9.10
2023-02-01T18:59:08.607Z,9.10
2023-02-01T19:01:35.447Z,9.10
2023-02-01T19:04:09.911Z,9.00
2023-02-01T19:06:44.549Z,9.00
2023-02-01T19:09:11.273Z,8.90
2023-02-01T19:11:38.149Z,8.90
2023-02-01T19:14:04.994Z,9.00
2023-02-01T19:16:31.842Z,8.90
2023-02-01T19:18:58.559Z,9.00
2023-02-01T19:21:25.522Z,9.00
2023-02-01T19:23:52.503Z,8.90
2023-02-01T19:26:19.995Z,8.80
2023-02-01T19:28:48.077Z,8.90
2023-02-01T19:31:17.623Z,9.10
2023-02-01T19:33:44.949Z,8.90
2023-02-01T19:36:11.796Z,9.10
2023-02-01T19:38:39.007Z,9.10
2023-02-01T19:41:05.963Z,9.10
2023-02-01T19:43:34.076Z,9.20
2023-02-01T19:46:03.367Z,9.50
2023-02-01T19:48:31.615Z,9.40
2023-02-01T19:50:59.178Z,9.30
2023-02-01T19:53:27.827Z,9.20
2023-02-01T19:55:56.828Z,9.30
2023-02-01T19:58:25.171Z,9.10
2023-02-01T20:00:55.090Z,9.40
2023-02-01T20:03:22.586Z,9.20
2023-02-01T20:05:57.770Z,9.20
2023-02-01T20:08:27.923Z,9.10
2023-02-01T20:10:54.968Z,9.10
2023-02-01T20:13:22.023Z,9.10
2023-02-01T20:15:48.888Z,8.10
2023-02-01T20:18:16.338Z,9.10
2023-02-01T20:20:43.228Z,9.20
2023-02-01T20:23:10.365Z,9.10
2023-02-01T20:25:39.238Z,9.30
2023-02-01T20:28:08.483Z,9.30
2023-02-01T20:30:35.503Z,9.10
2023-02-01T20:33:02.282Z,9.10
2023-02-01T20:35:29.168Z,8.90
2023-02-01T20:37:57.075Z,8.90
2023-02-01T20:40:25.262Z,8.90
2023-02-01T20:42:52.125Z,8.80
2023-02-01T20:45:20.651Z,8.70
2023-02-01T20:47:52.689Z,8.80
2023-02-01T20:50:19.538Z,8.80
2023-02-01T20:52:46.466Z,8.80
2023-02-01T20:55:13.411Z,8.80
2023-02-01T20:57:40.303Z,8.90
2023-02-01T21:00:10.786Z,8.80
2023-02-01T21:02:37.737Z,8.70
2023-02-01T21:05:06.253Z,8.90
2023-02-01T21:07:32.985Z,9.10
2023-02-01T21:09:59.727Z,9.10
2023-02-01T21:12:26.432Z,9.10
2023-02-01T21:14:55.244Z,9.10
2023-02-01T21:17:22.856Z,9.00
2023-02-01T21:19:49.682Z,9.00
2023-02-01T21:22:16.624Z,9.10
2023-02-01T21:24:43.365Z,9.00
2023-02-01T21:27:10.800Z,8.90
2023-02-01T21:29:37.656Z,8.90
2023-02-01T21:32:06.668Z,8.70
2023-02-01T21:34:34.414Z,9.00
2023-02-01T21:37:01.642Z,8.80
2023-02-01T21:39:29.169Z,8.80
2023-02-01T21:42:16.481Z,8.80
2023-02-01T21:44:46.283Z,8.90
2023-02-01T21:47:14.312Z,8.80
2023-02-01T21:49:41.610Z,8.70
2023-02-01T21:52:08.562Z,9.70
2023-02-01T21:54:35.779Z,8.80
2023-02-01T21:57:02.861Z,8.60
2023-02-01T21:59:29.587Z,8.50
2023-02-01T22:01:56.288Z,8.60
2023-02-01T22:04:23.048Z,8.70
2023-02-01T22:06:49.785Z,8.70
2023-02-01T22:09:24.617Z,8.90
2023-02-01T22:11:53.146Z,7.50
2023-02-01T22:14:20.503Z,9.10
2023-02-01T22:16:47.623Z,9.00
2023-02-01T22:19:14.774Z,9.00
2023-02-01T22:21:47.922Z,9.10
2023-02-01T22:24:22.400Z,9.00
2023-02-01T22:26:49.808Z,9.20
2023-02-01T22:29:19.167Z,9.40
2023-02-01T22:31:46.366Z,9.40
2023-02-01T22:34:13.561Z,9.50
2023-02-01T22:36:40.393Z,9.50
2023-02-01T22:39:07.499Z,9.60
2023-02-01T22:41:34.238Z,9.50
2023-02-01T22:44:02.677Z,9.50
2023-02-01T22:46:31.404Z,9.30
2023-02-01T22:48:59.267Z,9.60
2023-02-01T22:51:28.452Z,9.50
2023-02-01T22:53:58.080Z,9.40
2023-02-01T22:56:37.077Z,9.40
2023-02-01T22:59:07.670Z,9.40
2023-02-01T23:01:35.324Z,9.50
2023-02-01T23:04:05.318Z,9.30
2023-02-01T23:06:33.430Z,9.40
2023-02-01T23:09:06.141Z,9.30
2023-02-01T23:11:33.139Z,9.30
2023-02-01T23:13:59.876Z,9.10
2023-02-01T23:16:27.175Z,9.10
2023-02-01T23:18:54.068Z,9.10
2023-02-01T23:21:22.906Z,9.00
2023-02-01T23:23:52.092Z,8.90
2023-02-01T23:26:19.823Z,9.10
2023-02-01T23:28:47.381Z,9.20
2023-02-01T23:31:14.793Z,9.20
2023-02-01T23:33:44.094Z,9.20
2023-02-01T23:36:16.010Z,9.10
2023-02-01T23:38:46.908Z,9.10
2023-02-01T23:41:15.748Z,9.10
2023-02-01T23:43:58.231Z,9.10
2023-02-01T23:46:37.382Z,9.10
2023-02-01T23:49:07.443Z,9.10
2023-02-01T23:51:34.294Z,8.90
2023-02-01T23:54:01.136Z,8.90
2023-02-01T23:56:33.108Z,9.00
2023-02-01T23:59:01.814Z,9.00
